sensor_id;sensor_type;location;lat;lon;timestamp;pressure;altitude;pressure_sealevel;temperature;humidity
13765;BME280;6953;48.810;9.204;2023-01-27T00:00:23;99051.38;;;1.46;100.00
13765;BME280;6953;48.810;9.204;2023-01-27T00:02:48;98786.31;;;-0.08;100.00
13765;BME280;6953;48.810;9.204;2023-01-27T00:05:15;98987.19;;;1.10;100.00
13765;BME280;6953;48.810;9.204;2023-01-27T00:07:41;99068.47;;;1.58;100.00
13765;BME280;6953;48.810;9.204;2023-01-27T00:10:11;98813.63;;;0.11;100.00
13765;BME280;6953;48.810;9.204;2023-01-27T00:12:36;99060.66;;;1.64;100.00
13765;BME280;6953;48.810;9.204;2023-01-27T00:15:20;99065.81;;;1.65;100.00
13765;BME280;6953;48.810;9.204;2023-01-27T00:17:46;99058.09;;;1.61;100.00
13765;BME280;6953;48.810;9.204;2023-01-27T00:20:11;98722.97;;;-0.31;99.75
13765;BME280;6953;48.810;9.204;2023-01-27T00:22:36;98777.66;;;-0.03;99.67
13765;BME280;6953;48.810;9.204;2023-01-27T00:25:20;98828.09;;;0.25;99.72
13765;BME280;6953;48.810;9.204;2023-01-27T00:27:45;98789.59;;;0.06;99.65
13765;BME280;6953;48.810;9.204;2023-01-27T00:30:11;98964.81;;;1.11;99.99
13765;BME280;6953;48.810;9.204;2023-01-27T00:32:37;99053.75;;;1.66;99.94
13765;BME280;6953;48.810;9.204;2023-01-27T00:35:22;99043.56;;;1.52;100.00
13765;BME280;6953;48.810;9.204;2023-01-27T00:37:47;98726.41;;;-0.34;100.00
13765;BME280;6953;48.810;9.204;2023-01-27T00:40:15;99044.34;;;1.59;99.78
13765;BME280;6953;48.810;9.204;2023-01-27T00:42:41;99062.47;;;1.56;99.82
13765;BME280;6953;48.810;9.204;2023-01-27T00:45:07;98997.47;;;1.16;100.00
13765;BME280;6953;48.810;9.204;2023-01-27T00:47:51;99045.25;;;1.55;100.00
13765;BME280;6953;48.810;9.204;2023-01-27T00:50:17;99064.16;;;1.61;100.00
13765;BME280;6953;48.810;9.204;2023-01-27T00:52:43;99057.19;;;1.63;100.00
13765;BME280;6953;48.810;9.204;2023-01-27T00:55:09;99063.19;;;1.70;100.00
13765;BME280;6953;48.810;9.204;2023-01-27T00:57:35;99044.31;;;1.62;100.00
13765;BME280;6953;48.810;9.204;2023-01-27T01:00:02;98769.88;;;0.03;99.98
13765;BME280;6953;48.810;9.204;2023-01-27T01:02:27;98857.06;;;0.50;99.77
13765;BME280;6953;48.810;9.204;2023-01-27T01:04:53;99102.78;;;1.73;100.00
13765;BME280;6953;48.810;9.204;2023-01-27T01:07:18;99024.88;;;1.29;99.79
13765;BME280;6953;48.810;9.204;2023-01-27T01:09:43;98781.81;;;0.09;99.78
13765;BME280;6953;48.810;9.204;2023-01-27T01:12:09;99066.50;;;1.79;99.91
13765;BME280;6953;48.810;9.204;2023-01-27T01:14:34;99064.84;;;1.75;99.66
13765;BME280;6953;48.810;9.204;2023-01-27T01:16:59;99070.09;;;1.68;99.28
13765;BME280;6953;48.810;9.204;2023-01-27T01:19:25;98882.78;;;0.57;99.62
13765;BME280;6953;48.810;9.204;2023-01-27T01:21:50;98818.63;;;0.23;99.42
13765;BME280;6953;48.810;9.204;2023-01-27T01:24:16;99080.31;;;1.77;99.61
13765;BME280;6953;48.810;9.204;2023-01-27T01:26:41;99065.75;;;1.73;99.87
13765;BME280;6953;48.810;9.204;2023-01-27T01:29:07;99073.38;;;1.82;99.77
13765;BME280;6953;48.810;9.204;2023-01-27T01:31:32;98783.53;;;0.10;99.02
13765;BME280;6953;48.810;9.204;2023-01-27T01:33:58;99076.09;;;1.71;99.79
13765;BME280;6953;48.810;9.204;2023-01-27T01:36:23;99070.81;;;1.79;98.66
13765;BME280;6953;48.810;9.204;2023-01-27T01:38:53;98908.31;;;0.83;98.26
13765;BME280;6953;48.810;9.204;2023-01-27T01:41:19;98816.00;;;0.29;98.77
13765;BME280;6953;48.810;9.204;2023-01-27T01:43:46;99124.31;;;1.75;98.61
13765;BME280;6953;48.810;9.204;2023-01-27T01:46:11;99068.25;;;1.76;98.36
13765;BME280;6953;48.810;9.204;2023-01-27T01:48:57;99084.69;;;1.73;98.84
13765;BME280;6953;48.810;9.204;2023-01-27T01:51:32;98758.72;;;-0.02;97.76
13765;BME280;6953;48.810;9.204;2023-01-27T01:56:32;98972.44;;;1.21;97.87
13765;BME280;6953;48.810;9.204;2023-01-27T01:59:04;99090.66;;;1.78;98.30
13765;BME280;6953;48.810;9.204;2023-01-27T02:01:30;99050.19;;;1.74;97.65
13765;BME280;6953;48.810;9.204;2023-01-27T02:03:59;99077.81;;;1.71;96.92
13765;BME280;6953;48.810;9.204;2023-01-27T02:06:25;99051.13;;;1.67;97.36
13765;BME280;6953;48.810;9.204;2023-01-27T02:08:50;99044.41;;;1.54;97.42
13765;BME280;6953;48.810;9.204;2023-01-27T02:11:16;98823.56;;;0.44;96.92
13765;BME280;6953;48.810;9.204;2023-01-27T02:13:42;98923.50;;;1.11;97.14
13765;BME280;6953;48.810;9.204;2023-01-27T02:16:09;99083.69;;;1.85;97.18
13765;BME280;6953;48.810;9.204;2023-01-27T02:18:36;98764.47;;;0.23;96.58
13765;BME280;6953;48.810;9.204;2023-01-27T02:21:01;99071.66;;;1.82;96.79
13765;BME280;6953;48.810;9.204;2023-01-27T02:26:24;99028.50;;;1.86;96.56
13765;BME280;6953;48.810;9.204;2023-01-27T02:29:04;99032.75;;;1.90;96.11
13765;BME280;6953;48.810;9.204;2023-01-27T02:31:30;98807.09;;;0.55;96.20
13765;BME280;6953;48.810;9.204;2023-01-27T02:34:17;98743.06;;;0.16;95.89
13765;BME280;6953;48.810;9.204;2023-01-27T02:36:57;98749.06;;;0.20;95.56
13765;BME280;6953;48.810;9.204;2023-01-27T02:39:27;99031.06;;;1.86;95.84
13765;BME280;6953;48.810;9.204;2023-01-27T02:41:54;99048.28;;;1.90;96.03
13765;BME280;6953;48.810;9.204;2023-01-27T02:44:21;99033.72;;;1.81;96.10
13765;BME280;6953;48.810;9.204;2023-01-27T02:46:46;98943.00;;;1.33;95.66
13765;BME280;6953;48.810;9.204;2023-01-27T02:49:12;98785.78;;;0.41;95.18
13765;BME280;6953;48.810;9.204;2023-01-27T02:51:38;99035.38;;;1.85;95.55
13765;BME280;6953;48.810;9.204;2023-01-27T02:54:03;98749.00;;;0.23;95.15
13765;BME280;6953;48.810;9.204;2023-01-27T02:56:29;98872.03;;;0.95;95.41
13765;BME280;6953;48.810;9.204;2023-01-27T02:58:54;98818.06;;;0.72;95.27
13765;BME280;6953;48.810;9.204;2023-01-27T03:01:20;99056.03;;;1.88;94.66
13765;BME280;6953;48.810;9.204;2023-01-27T03:03:46;98807.09;;;0.57;94.78
13765;BME280;6953;48.810;9.204;2023-01-27T03:06:12;99016.47;;;1.82;94.97
13765;BME280;6953;48.810;9.204;2023-01-27T03:08:38;98749.84;;;0.26;95.02
13765;BME280;6953;48.810;9.204;2023-01-27T03:11:04;99059.38;;;1.95;94.88
13765;BME280;6953;48.810;9.204;2023-01-27T03:13:29;99027.47;;;1.97;94.96
13765;BME280;6953;48.810;9.204;2023-01-27T03:15:57;99065.38;;;2.01;95.28
13765;BME280;6953;48.810;9.204;2023-01-27T03:18:41;99011.19;;;1.91;95.07
13765;BME280;6953;48.810;9.204;2023-01-27T03:21:12;99001.81;;;1.82;95.36
13765;BME280;6953;48.810;9.204;2023-01-27T03:23:37;99023.28;;;1.89;94.85
13765;BME280;6953;48.810;9.204;2023-01-27T03:26:07;98804.41;;;0.64;95.31
13765;BME280;6953;48.810;9.204;2023-01-27T03:28:33;98960.88;;;1.51;94.97
13765;BME280;6953;48.810;9.204;2023-01-27T03:31:09;99034.38;;;1.97;95.43
13765;BME280;6953;48.810;9.204;2023-01-27T03:33:44;99041.69;;;1.63;95.51
13765;BME280;6953;48.810;9.204;2023-01-27T03:36:09;98861.75;;;0.89;95.92
13765;BME280;6953;48.810;9.204;2023-01-27T03:38:53;98775.50;;;0.35;95.38
13765;BME280;6953;48.810;9.204;2023-01-27T03:41:37;99046.47;;;1.96;95.59
13765;BME280;6953;48.810;9.204;2023-01-27T03:44:21;99052.47;;;1.97;95.44
13765;BME280;6953;48.810;9.204;2023-01-27T03:47:05;99055.16;;;1.89;96.50
13765;BME280;6953;48.810;9.204;2023-01-27T03:49:30;99041.25;;;1.99;95.94
13765;BME280;6953;48.810;9.204;2023-01-27T03:51:55;98740.38;;;0.24;95.40
13765;BME280;6953;48.810;9.204;2023-01-27T03:54:21;99029.25;;;1.94;95.60
13765;BME280;6953;48.810;9.204;2023-01-27T03:56:46;99037.78;;;2.00;95.56
13765;BME280;6953;48.810;9.204;2023-01-27T03:59:12;99048.09;;;2.03;95.68
13765;BME280;6953;48.810;9.204;2023-01-27T04:01:38;98977.13;;;1.59;95.26
13765;BME280;6953;48.810;9.204;2023-01-27T04:04:03;98757.50;;;0.31;94.58
13765;BME280;6953;48.810;9.204;2023-01-27T04:06:47;99044.72;;;1.98;95.09
13765;BME280;6953;48.810;9.204;2023-01-27T04:09:42;98948.09;;;1.40;95.06
13765;BME280;6953;48.810;9.204;2023-01-27T04:12:11;98957.47;;;1.47;95.44
13765;BME280;6953;48.810;9.204;2023-01-27T04:14:38;99048.97;;;2.02;94.93
13765;BME280;6953;48.810;9.204;2023-01-27T04:17:16;98856.63;;;0.87;95.36
13765;BME280;6953;48.810;9.204;2023-01-27T04:19:42;99044.78;;;1.92;95.14
13765;BME280;6953;48.810;9.204;2023-01-27T04:22:09;98766.91;;;0.36;94.79
13765;BME280;6953;48.810;9.204;2023-01-27T04:24:35;99058.47;;;1.99;95.32
13765;BME280;6953;48.810;9.204;2023-01-27T04:27:06;99049.03;;;1.96;95.39
13765;BME280;6953;48.810;9.204;2023-01-27T04:29:34;99061.06;;;2.00;95.55
13765;BME280;6953;48.810;9.204;2023-01-27T04:32:01;99047.41;;;1.91;95.39
13765;BME280;6953;48.810;9.204;2023-01-27T04:34:27;99055.91;;;1.99;95.15
13765;BME280;6953;48.810;9.204;2023-01-27T04:36:53;99059.34;;;1.98;95.39
13765;BME280;6953;48.810;9.204;2023-01-27T04:39:19;99073.38;;;1.83;95.23
13765;BME280;6953;48.810;9.204;2023-01-27T04:41:45;98777.31;;;0.30;94.75
13765;BME280;6953;48.810;9.204;2023-01-27T04:44:10;99045.72;;;1.87;95.53
13765;BME280;6953;48.810;9.204;2023-01-27T04:46:37;98796.97;;;0.40;95.63
13765;BME280;6953;48.810;9.204;2023-01-27T04:49:03;98769.66;;;0.21;95.39
13765;BME280;6953;48.810;9.204;2023-01-27T04:51:29;99057.75;;;1.89;95.89
13765;BME280;6953;48.810;9.204;2023-01-27T04:53:54;98978.13;;;1.49;95.72
13765;BME280;6953;48.810;9.204;2023-01-27T04:56:21;99055.13;;;1.94;96.27
13765;BME280;6953;48.810;9.204;2023-01-27T04:58:48;99044.78;;;1.92;96.02
13765;BME280;6953;48.810;9.204;2023-01-27T05:01:13;99054.22;;;1.96;95.86
13765;BME280;6953;48.810;9.204;2023-01-27T05:03:39;98967.00;;;1.44;96.07
13765;BME280;6953;48.810;9.204;2023-01-27T05:06:04;99050.81;;;1.93;96.28
13765;BME280;6953;48.810;9.204;2023-01-27T05:08:29;99058.47;;;1.99;96.06
13765;BME280;6953;48.810;9.204;2023-01-27T05:10:55;99067.97;;;2.00;96.03
13765;BME280;6953;48.810;9.204;2023-01-27T05:13:20;99042.28;;;1.85;95.95
13765;BME280;6953;48.810;9.204;2023-01-27T05:15:46;99077.50;;;1.95;95.92
13765;BME280;6953;48.810;9.204;2023-01-27T05:18:12;99056.66;;;2.06;95.60
13765;BME280;6953;48.810;9.204;2023-01-27T05:20:38;99052.41;;;2.03;95.29
13765;BME280;6953;48.810;9.204;2023-01-27T05:23:03;99053.28;;;2.03;95.91
13765;BME280;6953;48.810;9.204;2023-01-27T05:25:47;99067.00;;;2.06;95.84
13765;BME280;6953;48.810;9.204;2023-01-27T05:28:12;98939.59;;;1.29;95.98
13765;BME280;6953;48.810;9.204;2023-01-27T05:30:38;98780.56;;;0.43;95.68
13765;BME280;6953;48.810;9.204;2023-01-27T05:33:03;99103.19;;;2.08;95.41
13765;BME280;6953;48.810;9.204;2023-01-27T05:35:32;99065.38;;;2.01;95.74
13765;BME280;6953;48.810;9.204;2023-01-27T05:37:57;99073.06;;;2.04;95.49
13765;BME280;6953;48.810;9.204;2023-01-27T05:40:23;99076.06;;;1.74;95.36
13765;BME280;6953;48.810;9.204;2023-01-27T05:42:50;98732.09;;;-0.01;94.71
13765;BME280;6953;48.810;9.204;2023-01-27T05:45:16;99090.41;;;1.99;95.17
13765;BME280;6953;48.810;9.204;2023-01-27T05:47:41;98997.94;;;1.48;95.22
13765;BME280;6953;48.810;9.204;2023-01-27T05:50:07;99080.88;;;2.01;95.28
13765;BME280;6953;48.810;9.204;2023-01-27T05:52:32;99080.06;;;1.99;94.93
13765;BME280;6953;48.810;9.204;2023-01-27T05:54:57;99069.78;;;1.93;95.20
13765;BME280;6953;48.810;9.204;2023-01-27T05:57:23;99092.16;;;1.97;95.06
13765;BME280;6953;48.810;9.204;2023-01-27T05:59:48;99012.50;;;1.55;95.41
13765;BME280;6953;48.810;9.204;2023-01-27T06:02:13;98993.69;;;1.44;95.49
13765;BME280;6953;48.810;9.204;2023-01-27T06:04:39;99084.53;;;1.87;95.78
13765;BME280;6953;48.810;9.204;2023-01-27T06:07:05;98712.47;;;-0.15;95.39
13765;BME280;6953;48.810;9.204;2023-01-27T06:09:30;99061.22;;;1.90;95.44
13765;BME280;6953;48.810;9.204;2023-01-27T06:11:55;99047.53;;;1.79;95.87
13765;BME280;6953;48.810;9.204;2023-01-27T06:14:21;98997.00;;;1.54;96.09
13765;BME280;6953;48.810;9.204;2023-01-27T06:16:46;99117.03;;;2.05;95.60
13765;BME280;6953;48.810;9.204;2023-01-27T06:19:12;99040.63;;;1.81;95.24
13765;BME280;6953;48.810;9.204;2023-01-27T06:21:37;98893.59;;;0.91;95.74
13765;BME280;6953;48.810;9.204;2023-01-27T06:24:03;99113.56;;;2.08;95.74
13765;BME280;6953;48.810;9.204;2023-01-27T06:26:28;98853.34;;;0.75;95.38
13765;BME280;6953;48.810;9.204;2023-01-27T06:28:55;99018.34;;;1.71;95.92
13765;BME280;6953;48.810;9.204;2023-01-27T06:31:21;99069.63;;;2.03;95.89
13765;BME280;6953;48.810;9.204;2023-01-27T06:33:47;98887.53;;;0.95;95.74
13765;BME280;6953;48.810;9.204;2023-01-27T06:36:14;99011.44;;;1.71;95.28
13765;BME280;6953;48.810;9.204;2023-01-27T06:38:40;99107.66;;;1.97;95.49
13765;BME280;6953;48.810;9.204;2023-01-27T06:41:06;99074.03;;;1.97;95.31
13765;BME280;6953;48.810;9.204;2023-01-27T06:43:32;98976.53;;;1.40;95.47
13765;BME280;6953;48.810;9.204;2023-01-27T06:45:57;99041.66;;;1.68;95.34
13765;BME280;6953;48.810;9.204;2023-01-27T06:48:23;99101.41;;;2.13;95.43
13765;BME280;6953;48.810;9.204;2023-01-27T06:50:48;99072.44;;;1.87;95.23
13765;BME280;6953;48.810;9.204;2023-01-27T06:53:14;98969.81;;;1.26;94.93
13765;BME280;6953;48.810;9.204;2023-01-27T06:55:40;99154.84;;;2.15;95.33
13765;BME280;6953;48.810;9.204;2023-01-27T06:58:10;99089.53;;;2.00;94.88
13765;BME280;6953;48.810;9.204;2023-01-27T07:00:36;99111.91;;;2.03;94.98
13765;BME280;6953;48.810;9.204;2023-01-27T07:03:03;99131.63;;;2.11;94.84
13765;BME280;6953;48.810;9.204;2023-01-27T07:05:29;99067.47;;;1.71;95.00
13765;BME280;6953;48.810;9.204;2023-01-27T07:07:54;98851.03;;;0.51;95.14
13765;BME280;6953;48.810;9.204;2023-01-27T07:10:19;99147.06;;;2.20;95.19
13765;BME280;6953;48.810;9.204;2023-01-27T07:12:45;99160.84;;;2.22;94.86
13765;BME280;6953;48.810;9.204;2023-01-27T07:15:11;98863.84;;;0.58;94.83
13765;BME280;6953;48.810;9.204;2023-01-27T07:17:36;98899.72;;;0.82;95.09
13765;BME280;6953;48.810;9.204;2023-01-27T07:20:03;99067.38;;;1.78;94.61
13765;BME280;6953;48.810;9.204;2023-01-27T07:22:28;99177.19;;;2.22;94.92
13765;BME280;6953;48.810;9.204;2023-01-27T07:24:54;99055.41;;;1.73;94.64
13765;BME280;6953;48.810;9.204;2023-01-27T07:27:21;99147.81;;;2.26;94.64
13765;BME280;6953;48.810;9.204;2023-01-27T07:29:46;98973.19;;;1.29;94.21
13765;BME280;6953;48.810;9.204;2023-01-27T07:32:11;98956.16;;;1.13;94.43
13765;BME280;6953;48.810;9.204;2023-01-27T07:34:37;99161.44;;;2.42;94.68
13765;BME280;6953;48.810;9.204;2023-01-27T07:37:02;99166.56;;;2.43;93.82
13765;BME280;6953;48.810;9.204;2023-01-27T07:39:30;99180.41;;;2.42;93.92
13765;BME280;6953;48.810;9.204;2023-01-27T07:41:55;99165.66;;;2.46;93.85
13765;BME280;6953;48.810;9.204;2023-01-27T07:44:21;99177.75;;;2.47;93.87
13765;BME280;6953;48.810;9.204;2023-01-27T07:46:47;99078.16;;;2.11;94.21
13765;BME280;6953;48.810;9.204;2023-01-27T07:49:12;99164.63;;;2.60;93.18
13765;BME280;6953;48.810;9.204;2023-01-27T07:51:37;98845.66;;;0.69;92.41
13765;BME280;6953;48.810;9.204;2023-01-27T07:54:04;99139.84;;;2.41;92.30
13765;BME280;6953;48.810;9.204;2023-01-27T07:56:29;99111.72;;;2.16;92.01
13765;BME280;6953;48.810;9.204;2023-01-27T07:58:56;99170.81;;;2.49;92.23
13765;BME280;6953;48.810;9.204;2023-01-27T08:01:22;99092.06;;;2.03;91.71
13765;BME280;6953;48.810;9.204;2023-01-27T08:03:48;99181.91;;;2.60;91.66
13765;BME280;6953;48.810;9.204;2023-01-27T08:06:13;99193.13;;;2.57;91.21
13765;BME280;6953;48.810;9.204;2023-01-27T08:08:38;99181.13;;;2.52;91.42
13765;BME280;6953;48.810;9.204;2023-01-27T08:11:06;99080.03;;;2.01;90.87
13765;BME280;6953;48.810;9.204;2023-01-27T08:13:35;98921.81;;;1.05;91.22
13765;BME280;6953;48.810;9.204;2023-01-27T08:16:02;99187.16;;;2.54;90.95
13765;BME280;6953;48.810;9.204;2023-01-27T08:18:29;99189.78;;;2.51;90.74
13765;BME280;6953;48.810;9.204;2023-01-27T08:20:58;99102.41;;;2.04;90.49
13765;BME280;6953;48.810;9.204;2023-01-27T08:23:24;99190.53;;;2.57;90.65
13765;BME280;6953;48.810;9.204;2023-01-27T08:25:55;99203.41;;;2.65;90.54
13765;BME280;6953;48.810;9.204;2023-01-27T08:28:22;99130.53;;;2.28;90.47
13765;BME280;6953;48.810;9.204;2023-01-27T08:30:48;99215.38;;;2.73;90.21
13765;BME280;6953;48.810;9.204;2023-01-27T08:33:18;99211.84;;;2.79;89.95
13765;BME280;6953;48.810;9.204;2023-01-27T08:35:43;99210.97;;;2.80;89.14
13765;BME280;6953;48.810;9.204;2023-01-27T08:38:13;99121.00;;;2.32;89.01
13765;BME280;6953;48.810;9.204;2023-01-27T08:40:40;99214.31;;;2.86;89.26
13765;BME280;6953;48.810;9.204;2023-01-27T08:43:06;99211.66;;;2.91;88.71
13765;BME280;6953;48.810;9.204;2023-01-27T08:45:33;99131.97;;;2.50;87.81
13765;BME280;6953;48.810;9.204;2023-01-27T08:47:58;99215.06;;;2.96;87.65
13765;BME280;6953;48.810;9.204;2023-01-27T08:50:24;99200.53;;;2.84;87.11
13765;BME280;6953;48.810;9.204;2023-01-27T08:52:49;99173.94;;;2.72;87.29
13765;BME280;6953;48.810;9.204;2023-01-27T08:55:16;99200.72;;;2.71;86.97
13765;BME280;6953;48.810;9.204;2023-01-27T08:57:42;99203.94;;;2.88;86.18
13765;BME280;6953;48.810;9.204;2023-01-27T09:00:08;99236.59;;;2.99;86.58
13765;BME280;6953;48.810;9.204;2023-01-27T09:02:35;99217.72;;;2.91;86.30
13765;BME280;6953;48.810;9.204;2023-01-27T09:05:01;99240.88;;;3.02;86.30
13765;BME280;6953;48.810;9.204;2023-01-27T09:07:26;98948.94;;;1.41;86.05
13765;BME280;6953;48.810;9.204;2023-01-27T09:09:52;99224.47;;;3.03;86.93
13765;BME280;6953;48.810;9.204;2023-01-27T09:12:17;99238.22;;;3.06;85.99
13765;BME280;6953;48.810;9.204;2023-01-27T09:14:43;99019.94;;;1.82;86.33
13765;BME280;6953;48.810;9.204;2023-01-27T09:17:08;99177.34;;;2.75;86.09
13765;BME280;6953;48.810;9.204;2023-01-27T09:19:34;99257.28;;;3.04;86.26
13765;BME280;6953;48.810;9.204;2023-01-27T09:21:59;99037.78;;;2.00;85.67
13765;BME280;6953;48.810;9.204;2023-01-27T09:24:24;99214.09;;;3.03;86.29
13765;BME280;6953;48.810;9.204;2023-01-27T09:26:50;98966.88;;;1.53;85.91
13765;BME280;6953;48.810;9.204;2023-01-27T09:29:15;99225.19;;;3.12;86.03
13765;BME280;6953;48.810;9.204;2023-01-27T09:31:40;98870.00;;;1.17;85.55
13765;BME280;6953;48.810;9.204;2023-01-27T09:34:06;98834.38;;;0.79;85.45
13765;BME280;6953;48.810;9.204;2023-01-27T09:36:36;99070.03;;;2.37;85.55
13765;BME280;6953;48.810;9.204;2023-01-27T09:39:06;99144.47;;;2.82;85.18
13765;BME280;6953;48.810;9.204;2023-01-27T09:47:03;99225.53;;;3.44;85.25
13765;BME280;6953;48.810;9.204;2023-01-27T10:00:33;98953.00;;;2.15;83.26
13765;BME280;6953;48.810;9.204;2023-01-27T10:17:20;99184.44;;;4.16;81.39
13765;BME280;6953;48.810;9.204;2023-01-27T10:23:01;99257.19;;;4.56;79.88
13765;BME280;6953;48.810;9.204;2023-01-27T10:28:23;98944.84;;;2.88;79.71
13765;BME280;6953;48.810;9.204;2023-01-27T10:31:07;99215.91;;;4.44;78.76
13765;BME280;6953;48.810;9.204;2023-01-27T10:33:56;99000.25;;;3.27;78.83
13765;BME280;6953;48.810;9.204;2023-01-27T10:36:29;99103.41;;;4.00;78.38
13765;BME280;6953;48.810;9.204;2023-01-27T10:41:35;99223.47;;;4.54;76.29
13765;BME280;6953;48.810;9.204;2023-01-27T10:44:29;99213.78;;;4.61;76.97
13765;BME280;6953;48.810;9.204;2023-01-27T10:49:50;99234.03;;;4.86;76.94
13765;BME280;6953;48.810;9.204;2023-01-27T10:52:24;99192.03;;;4.66;76.71
13765;BME280;6953;48.810;9.204;2023-01-27T10:55:00;99230.91;;;5.10;76.81
13765;BME280;6953;48.810;9.204;2023-01-27T10:57:33;99248.97;;;5.14;77.00
13765;BME280;6953;48.810;9.204;2023-01-27T11:00:13;99253.53;;;5.07;76.31
13765;BME280;6953;48.810;9.204;2023-01-27T11:02:48;99206.09;;;4.96;75.96
13765;BME280;6953;48.810;9.204;2023-01-27T11:05:23;99209.16;;;4.75;75.00
13765;BME280;6953;48.810;9.204;2023-01-27T11:07:56;99226.09;;;4.92;74.82
13765;BME280;6953;48.810;9.204;2023-01-27T11:10:29;99205.53;;;4.82;75.61
13765;BME280;6953;48.810;9.204;2023-01-27T11:12:57;99167.28;;;4.49;75.18
13765;BME280;6953;48.810;9.204;2023-01-27T11:15:29;99146.00;;;4.32;75.99
13765;BME280;6953;48.810;9.204;2023-01-27T11:18:13;99142.69;;;4.25;76.71
13765;BME280;6953;48.810;9.204;2023-01-27T11:21:33;99229.94;;;4.75;76.53
13765;BME280;6953;48.810;9.204;2023-01-27T11:23:53;99227.28;;;4.78;77.28
13765;BME280;6953;48.810;9.204;2023-01-27T11:29:16;99209.59;;;4.55;76.33
13765;BME280;6953;48.810;9.204;2023-01-27T11:31:52;99222.75;;;4.87;76.48
13765;BME280;6953;48.810;9.204;2023-01-27T11:34:31;99160.06;;;4.61;77.04
13765;BME280;6953;48.810;9.204;2023-01-27T11:36:58;99236.53;;;4.91;76.72
13765;BME280;6953;48.810;9.204;2023-01-27T11:39:26;99198.53;;;4.85;77.09
13765;BME280;6953;48.810;9.204;2023-01-27T11:41:54;99157.22;;;4.73;76.20
13765;BME280;6953;48.810;9.204;2023-01-27T11:44:23;99148.47;;;4.77;76.14
13765;BME280;6953;48.810;9.204;2023-01-27T11:46:50;98963.00;;;3.74;75.78
13765;BME280;6953;48.810;9.204;2023-01-27T11:49:34;99247.25;;;5.15;75.46
13765;BME280;6953;48.810;9.204;2023-01-27T11:52:16;99120.28;;;4.59;75.08
13765;BME280;6953;48.810;9.204;2023-01-27T11:54:56;99251.75;;;5.09;75.50
13765;BME280;6953;48.810;9.204;2023-01-27T11:57:25;99187.00;;;4.97;76.31
13765;BME280;6953;48.810;9.204;2023-01-27T11:59:58;99118.19;;;4.75;76.58
13765;BME280;6953;48.810;9.204;2023-01-27T12:02:37;99183.09;;;5.15;75.59
13765;BME280;6953;48.810;9.204;2023-01-27T12:05:11;99188.09;;;5.23;75.59
13765;BME280;6953;48.810;9.204;2023-01-27T12:07:54;99199.31;;;5.26;75.60
13765;BME280;6953;48.810;9.204;2023-01-27T12:12:57;98993.25;;;4.12;75.38
13765;BME280;6953;48.810;9.204;2023-01-27T12:15:25;98913.75;;;3.71;75.85
13765;BME280;6953;48.810;9.204;2023-01-27T12:17:59;98996.44;;;4.25;75.02
13765;BME280;6953;48.810;9.204;2023-01-27T12:20:36;99109.19;;;4.89;75.19
13765;BME280;6953;48.810;9.204;2023-01-27T12:25:47;99191.19;;;5.38;75.43
13765;BME280;6953;48.810;9.204;2023-01-27T12:28:23;99107.28;;;4.97;75.35
13765;BME280;6953;48.810;9.204;2023-01-27T12:30:51;98968.97;;;4.15;75.21
13765;BME280;6953;48.810;9.204;2023-01-27T12:33:28;99068.06;;;4.70;75.54
13765;BME280;6953;48.810;9.204;2023-01-27T12:35:59;99080.97;;;4.74;75.71
13765;BME280;6953;48.810;9.204;2023-01-27T12:38:32;99169.44;;;5.08;76.19
13765;BME280;6953;48.810;9.204;2023-01-27T12:41:03;99185.28;;;5.32;75.27
13765;BME280;6953;48.810;9.204;2023-01-27T12:43:29;99093.09;;;4.75;76.11
13765;BME280;6953;48.810;9.204;2023-01-27T12:48:30;98903.25;;;3.37;75.55
13765;BME280;6953;48.810;9.204;2023-01-27T12:51:12;99176.66;;;4.94;76.27
13765;BME280;6953;48.810;9.204;2023-01-27T12:53:38;99159.19;;;4.64;77.26
13765;BME280;6953;48.810;9.204;2023-01-27T12:56:13;99106.63;;;4.50;76.82
13765;BME280;6953;48.810;9.204;2023-01-27T13:04:16;99155.63;;;4.68;77.81
13765;BME280;6953;48.810;9.204;2023-01-27T13:06:56;99167.91;;;4.99;78.40
13765;BME280;6953;48.810;9.204;2023-01-27T13:10:14;98935.75;;;3.53;77.42
13765;BME280;6953;48.810;9.204;2023-01-27T13:12:27;98907.72;;;3.31;78.01
13765;BME280;6953;48.810;9.204;2023-01-27T13:14:56;99183.03;;;4.81;78.22
13765;BME280;6953;48.810;9.204;2023-01-27T13:17:27;99097.69;;;4.25;78.26
13765;BME280;6953;48.810;9.204;2023-01-27T13:19:57;99143.91;;;4.49;78.42
13765;BME280;6953;48.810;9.204;2023-01-27T13:22:26;99026.75;;;3.84;78.76
13765;BME280;6953;48.810;9.204;2023-01-27T13:24:57;98979.13;;;3.47;78.85
13765;BME280;6953;48.810;9.204;2023-01-27T13:27:24;99066.50;;;3.87;78.68
13765;BME280;6953;48.810;9.204;2023-01-27T13:30:14;99205.72;;;4.73;79.24
13765;BME280;6953;48.810;9.204;2023-01-27T13:32:42;98987.31;;;3.26;80.13
13765;BME280;6953;48.810;9.204;2023-01-27T13:35:30;99179.81;;;4.29;80.37
13765;BME280;6953;48.810;9.204;2023-01-27T13:38:18;99179.69;;;4.36;81.15
13765;BME280;6953;48.810;9.204;2023-01-27T13:40:46;99168.66;;;4.25;80.61
13765;BME280;6953;48.810;9.204;2023-01-27T13:43:19;99240.09;;;4.44;81.04
13765;BME280;6953;48.810;9.204;2023-01-27T13:45:56;98919.78;;;2.90;80.68
13765;BME280;6953;48.810;9.204;2023-01-27T13:48:30;99188.22;;;4.43;80.79
13765;BME280;6953;48.810;9.204;2023-01-27T13:51:13;99206.28;;;4.47;80.81
13765;BME280;6953;48.810;9.204;2023-01-27T13:53:39;99095.16;;;3.80;81.14
13765;BME280;6953;48.810;9.204;2023-01-27T13:59:05;99212.56;;;4.36;81.94
13765;BME280;6953;48.810;9.204;2023-01-27T14:04:29;99211.06;;;4.24;81.57
13765;BME280;6953;48.810;9.204;2023-01-27T14:09:28;99223.38;;;4.15;82.47
13765;BME280;6953;48.810;9.204;2023-01-27T14:12:15;99226.91;;;4.11;83.14
13765;BME280;6953;48.810;9.204;2023-01-27T14:18:16;99278.16;;;4.02;82.99
13765;BME280;6953;48.810;9.204;2023-01-27T14:28:51;99226.31;;;3.97;83.66
13765;BME280;6953;48.810;9.204;2023-01-27T14:31:24;99153.56;;;3.56;83.27
13765;BME280;6953;48.810;9.204;2023-01-27T14:34:04;99137.34;;;3.44;83.09
13765;BME280;6953;48.810;9.204;2023-01-27T14:36:51;99228.13;;;3.94;83.06
13765;BME280;6953;48.810;9.204;2023-01-27T14:47:16;99077.63;;;3.02;83.54
13765;BME280;6953;48.810;9.204;2023-01-27T14:52:52;99229.03;;;3.91;83.87
13765;BME280;6953;48.810;9.204;2023-01-27T15:01:07;99191.41;;;3.68;83.95
13765;BME280;6953;48.810;9.204;2023-01-27T15:09:32;99221.22;;;3.91;83.70
13765;BME280;6953;48.810;9.204;2023-01-27T15:22:41;99229.66;;;4.04;83.31
13765;BME280;6953;48.810;9.204;2023-01-27T15:25:33;99222.88;;;3.97;83.35
13765;BME280;6953;48.810;9.204;2023-01-27T15:28:01;99225.53;;;3.92;83.63